Time,TemperatureF,DewpointF,PressureIn,WindDirection,WindDirectionDegrees,WindSpeedMPH,WindSpeedGustMPH,Humidity,HourlyPrecipIn,Conditions,Clouds,dailyrainin,SoftwareType,DateUTC
2013-10-12 00:23:00,67.0,58.0,29.93,SSE,162,6.0,6.0,74,0.00,,,0.00,,2013-10-12 05:23:00,
2013-10-12 00:52:00,66.0,57.0,29.93,SSW,200,5.0,13.0,73,0.00,,,0.00,,2013-10-12 05:52:00,
2013-10-12 01:22:00,66.0,57.0,29.93,South,177,3.0,13.0,73,0.00,,,0.00,,2013-10-12 06:22:00,
2013-10-12 01:52:00,66.0,57.0,29.93,SSE,160,6.0,13.0,72,0.00,,,0.00,,2013-10-12 06:52:00,
2013-10-12 02:22:00,66.0,57.0,29.93,SSW,205,3.0,13.0,72,0.00,,,0.00,,2013-10-12 07:22:00,
2013-10-12 02:52:00,66.0,57.0,29.92,South,171,6.0,13.0,74,0.00,,,0.00,,2013-10-12 07:52:00,
2013-10-12 03:22:00,66.0,57.0,29.92,SSW,201,1.0,13.0,74,0.00,,,0.00,,2013-10-12 08:22:00,
2013-10-12 03:52:00,65.0,56.0,29.92,SE,140,3.0,13.0,74,0.00,,,0.00,,2013-10-12 08:52:00,
2013-10-12 04:21:00,64.0,56.0,29.92,SE,146,5.0,13.0,74,0.00,,,0.00,,2013-10-12 09:21:00,
2013-10-12 04:54:00,64.0,58.0,29.91,SSE,159,3.0,13.0,82,0.00,,,0.00,,2013-10-12 09:54:00,
2013-10-12 05:23:00,63.0,57.0,29.91,South,170,2.0,13.0,82,0.00,,,0.00,,2013-10-12 10:23:00,
2013-10-12 05:52:00,63.0,59.0,29.91,ESE,103,3.0,13.0,86,0.00,,,0.00,,2013-10-12 10:52:00,
2013-10-12 06:22:00,63.0,59.0,29.91,SSE,162,2.0,13.0,86,0.00,,,0.00,,2013-10-12 11:22:00,
2013-10-12 06:52:00,62.0,58.0,29.91,South,184,2.0,13.0,86,0.00,,,0.00,,2013-10-12 11:52:00,
2013-10-12 07:22:00,62.0,58.0,29.91,SSW,197,2.0,13.0,86,0.00,,,0.00,,2013-10-12 12:22:00,
2013-10-12 07:52:00,61.0,57.0,29.91,SSE,168,2.0,13.0,88,0.00,,,0.00,,2013-10-12 12:52:00,
2013-10-12 08:21:00,62.0,58.0,29.91,SSW,194,2.0,13.0,88,0.00,,,0.00,,2013-10-12 13:21:00,
2013-10-12 08:52:00,63.0,59.0,29.91,SSW,203,3.0,13.0,88,0.00,,,0.00,,2013-10-12 13:52:00,
2013-10-12 09:21:00,65.0,61.0,29.91,South,185,2.0,13.0,88,0.00,,,0.00,,2013-10-12 14:21:00,
2013-10-12 09:52:00,65.0,61.0,29.91,West,259,2.0,13.0,88,0.00,,,0.00,,2013-10-12 14:52:00,
2013-10-12 10:22:00,61.0,57.0,29.92,NW,306,5.0,16.0,88,0.00,,,0.00,,2013-10-12 15:22:00,
2013-10-12 10:54:00,59.0,50.0,29.93,NNW,331,6.0,16.0,71,0.00,,,0.00,,2013-10-12 15:54:00,
2013-10-12 11:23:00,59.0,50.0,29.93,NW,304,1.0,16.0,71,0.00,,,0.00,,2013-10-12 16:23:00,
2013-10-12 11:43:00,59.0,49.0,29.93,WNW,294,0.0,16.0,69,0.00,,,0.00,,2013-10-12 16:43:00,
2013-10-12 11:53:00,59.0,49.0,29.93,WNW,283,2.0,16.0,69,0.00,,,0.00,,2013-10-12 16:53:00,
2013-10-12 12:23:00,62.0,52.0,29.94,NW,305,3.0,16.0,69,0.00,,,0.00,,2013-10-12 17:23:00,
2013-10-12 12:53:00,66.0,51.0,29.94,North,352,6.0,16.0,58,0.00,,,0.00,,2013-10-12 17:53:00,
2013-10-12 13:22:00,68.0,53.0,29.95,SW,222,6.0,16.0,58,0.00,,,0.00,,2013-10-12 18:22:00,
2013-10-12 13:52:00,69.0,50.0,29.95,WSW,255,6.0,16.0,50,0.00,,,0.00,,2013-10-12 18:52:00,
2013-10-12 14:22:00,70.0,50.0,29.96,West,265,3.0,16.0,50,0.00,,,0.00,,2013-10-12 19:22:00,
2013-10-12 14:52:00,69.0,47.0,29.96,WNW,303,5.0,16.0,45,0.00,,,0.00,,2013-10-12 19:52:00,
2013-10-12 15:22:00,70.0,48.0,29.96,WNW,291,8.0,16.0,45,0.00,,,0.00,,2013-10-12 20:22:00,
2013-10-12 15:52:00,70.0,48.0,29.97,West,266,6.0,17.0,45,0.00,,,0.00,,2013-10-12 20:52:00,
2013-10-12 16:22:00,70.0,48.0,29.97,WNW,287,7.0,17.0,45,0.00,,,0.00,,2013-10-12 21:22:00,
2013-10-12 16:54:00,69.0,46.0,29.98,North,350,6.0,17.0,43,0.00,,,0.00,,2013-10-12 21:54:00,
2013-10-12 17:24:00,68.0,45.0,29.98,NW,306,7.0,17.0,43,0.00,,,0.00,,2013-10-12 22:24:00,
2013-10-12 17:54:00,66.0,40.0,30.00,WNW,303,7.0,17.0,39,0.00,,,0.00,,2013-10-12 22:54:00,
2013-10-12 18:22:00,65.0,39.0,30.00,NNW,327,2.0,17.0,39,0.00,,,0.00,,2013-10-12 23:22:00,
2013-10-12 18:52:00,63.0,40.0,30.00,NNW,344,1.0,17.0,42,0.00,,,0.00,,2013-10-12 23:52:00,
2013-10-12 19:12:00,61.0,38.0,30.01,NW,323,1.0,17.0,42,0.00,,,0.00,,2013-10-13 00:12:00,
2013-10-12 19:22:00,61.0,38.0,30.01,WSW,257,0.0,17.0,42,0.00,,,0.00,,2013-10-13 00:22:00,
2013-10-12 19:52:00,57.0,43.0,30.01,NNW,330,0.0,17.0,59,0.00,,,0.00,,2013-10-13 00:52:00,
2013-10-12 20:22:00,54.0,40.0,30.01,NNW,330,0.0,17.0,59,0.00,,,0.00,,2013-10-13 01:22:00,
2013-10-12 20:52:00,52.0,45.0,30.02,NNW,330,0.0,17.0,76,0.00,,,0.00,,2013-10-13 01:52:00,
2013-10-12 21:22:00,50.0,43.0,30.03,NNW,330,0.0,17.0,76,0.00,,,0.00,,2013-10-13 02:22:00,
2013-10-12 21:52:00,52.0,44.0,30.03,West,278,0.0,17.0,75,0.00,,,0.00,,2013-10-13 02:52:00,
2013-10-12 22:22:00,50.0,42.0,30.04,West,274,0.0,17.0,75,0.00,,,0.00,,2013-10-13 03:22:00,
2013-10-12 22:54:00,49.0,42.0,30.05,West,274,0.0,17.0,76,0.00,,,0.00,,2013-10-13 03:54:00,
2013-10-12 23:02:00,-999.0,-99.9,30.05,West,274,0.0,17.0,-999,-99.99,,,-99.99,,2013-10-13 04:02:00,
2013-10-12 23:23:00,48.0,41.0,30.05,West,274,0.0,17.0,76,0.00,,,0.00,,2013-10-13 04:23:00,
2013-10-12 23:54:00,47.0,44.0,30.06,SSE,150,1.0,17.0,89,0.00,,,0.00,,2013-10-13 04:54:00,